createdAt,value
2022-08-17T00:03:39.105Z,8.70
2022-08-17T00:08:04.649Z,8.93
2022-08-17T00:12:42.721Z,9.40
2022-08-17T00:17:09.691Z,9.20
2022-08-17T00:22:14.723Z,8.70
2022-08-17T00:26:44.025Z,8.93
2022-08-17T00:31:11.529Z,9.90
2022-08-17T00:35:36.953Z,9.70
2022-08-17T00:40:02.623Z,9.63
2022-08-17T00:44:28.817Z,9.30
2022-08-17T00:48:57.867Z,8.80
2022-08-17T00:53:23.860Z,8.77
2022-08-17T00:57:55.545Z,9.70
2022-08-17T01:02:21.752Z,9.20
2022-08-17T01:06:49.434Z,9.53
2022-08-17T01:11:15.034Z,8.90
2022-08-17T01:15:54.074Z,9.60
2022-08-17T01:20:19.372Z,8.90
2022-08-17T01:24:50.284Z,9.00
2022-08-17T01:29:16.004Z,9.40
2022-08-17T01:33:41.236Z,9.87
2022-08-17T01:38:07.481Z,9.17
2022-08-17T01:43:00.744Z,9.30
2022-08-17T01:47:26.429Z,9.23
2022-08-17T01:51:54.155Z,9.67
2022-08-17T01:56:23.618Z,9.93
2022-08-17T02:01:00.557Z,9.40
2022-08-17T02:05:27.224Z,10.20
2022-08-17T02:09:52.808Z,9.40
2022-08-17T02:14:18.462Z,9.70
2022-08-17T02:18:43.974Z,7.27
2022-08-17T02:23:11.869Z,7.67
2022-08-17T02:27:38.733Z,8.33
2022-08-17T02:32:05.222Z,9.07
2022-08-17T02:36:30.467Z,9.70
2022-08-17T02:40:55.670Z,8.53
2022-08-17T02:45:24.304Z,10.00
2022-08-17T02:49:49.525Z,9.03
2022-08-17T02:54:40.290Z,10.33
2022-08-17T02:59:06.196Z,8.60
2022-08-17T03:03:31.402Z,9.17
2022-08-17T03:07:57.058Z,9.70
2022-08-17T03:12:22.386Z,8.70
2022-08-17T03:16:47.593Z,8.97
2022-08-17T03:21:12.875Z,9.90
2022-08-17T03:25:44.011Z,10.00
2022-08-17T03:30:10.948Z,9.90
2022-08-17T03:34:36.174Z,8.17
2022-08-17T03:39:01.395Z,8.87
2022-08-17T03:43:31.381Z,10.07
2022-08-17T03:48:14.936Z,9.07
2022-08-17T03:52:58.809Z,9.00
2022-08-17T03:57:25.848Z,9.60
2022-08-17T04:01:54.428Z,10.10
2022-08-17T04:06:20.764Z,10.70
2022-08-17T04:10:46.317Z,10.10
2022-08-17T04:15:12.964Z,10.03
2022-08-17T04:19:38.176Z,8.60
2022-08-17T04:24:04.154Z,10.03
2022-08-17T04:28:30.932Z,10.63
2022-08-17T04:33:09.670Z,9.50
2022-08-17T04:37:34.902Z,10.37
2022-08-17T04:42:17.007Z,9.07
2022-08-17T04:46:42.317Z,9.57
2022-08-17T04:51:23.353Z,8.93
2022-08-17T04:55:48.726Z,10.97
2022-08-17T05:00:14.443Z,11.20
2022-08-17T05:04:41.787Z,11.53
2022-08-17T05:09:07.062Z,13.30
2022-08-17T05:13:32.514Z,12.00
2022-08-17T05:17:58.293Z,12.10
2022-08-17T05:22:23.532Z,12.50
2022-08-17T05:26:48.870Z,10.93
2022-08-17T05:31:16.305Z,12.50
2022-08-17T05:35:46.903Z,14.60
2022-08-17T05:40:12.968Z,14.20
2022-08-17T05:44:38.188Z,15.27
2022-08-17T05:49:11.019Z,16.97
2022-08-17T05:54:07.444Z,19.10
2022-08-17T05:59:03.171Z,20.70
2022-08-17T06:04:01.186Z,21.37
2022-08-17T06:08:51.845Z,21.73
2022-08-17T06:13:35.877Z,20.50
2022-08-17T06:18:08.959Z,20.93
2022-08-17T06:22:42.618Z,22.10
2022-08-17T06:27:35.639Z,18.93
2022-08-17T06:32:02.730Z,21.70
2022-08-17T06:37:00.457Z,21.83
2022-08-17T06:41:54.813Z,19.10
2022-08-17T06:46:39.209Z,18.83
2022-08-17T06:51:25.944Z,18.70
2022-08-17T06:56:05.435Z,20.33
2022-08-17T07:00:41.772Z,21.60
2022-08-17T07:05:08.067Z,20.80
2022-08-17T07:09:38.304Z,18.80
2022-08-17T07:14:29.209Z,20.73
2022-08-17T07:18:57.439Z,17.47
2022-08-17T07:23:38.536Z,20.33
2022-08-17T07:28:07.814Z,21.80
2022-08-17T07:32:40.247Z,24.33
2022-08-17T07:37:05.801Z,21.60
2022-08-17T07:41:57.535Z,22.90
2022-08-17T07:46:51.674Z,23.83
2022-08-17T07:51:21.613Z,21.87
2022-08-17T07:55:47.091Z,18.20
2022-08-17T08:00:26.641Z,20.30
2022-08-17T08:05:48.691Z,19.40
2022-08-17T08:10:32.234Z,19.27
2022-08-17T08:15:10.135Z,19.93
2022-08-17T08:19:35.413Z,20.67
2022-08-17T08:24:31.182Z,20.97
2022-08-17T08:29:29.889Z,18.00
2022-08-17T08:34:58.787Z,20.43
2022-08-17T08:39:18.177Z,20.57
2022-08-17T08:44:09.073Z,17.10
2022-08-17T08:48:58.721Z,22.70
2022-08-17T08:53:49.932Z,20.37
2022-08-17T08:58:31.773Z,20.67
2022-08-17T09:03:52.834Z,19.13
2022-08-17T09:08:58.794Z,22.97
2022-08-17T09:13:42.277Z,17.83
2022-08-17T09:19:00.389Z,16.30
2022-08-17T09:23:37.902Z,21.47
2022-08-17T09:28:21.394Z,17.57
2022-08-17T09:33:00.086Z,21.53
2022-08-17T09:37:47.783Z,18.63
2022-08-17T09:42:33.255Z,16.20
2022-08-17T09:47:17.107Z,12.73
2022-08-17T09:51:49.288Z,15.73
2022-08-17T09:57:28.702Z,13.20
2022-08-17T10:02:26.568Z,13.17
2022-08-17T10:06:58.834Z,12.20
2022-08-17T10:11:55.726Z,13.00
2022-08-17T10:16:49.906Z,11.30
2022-08-17T10:21:36.089Z,11.53
2022-08-17T10:26:24.874Z,11.70
2022-08-17T10:31:16.686Z,11.43
2022-08-17T10:35:57.072Z,15.40
2022-08-17T10:40:32.418Z,11.70
2022-08-17T10:45:21.702Z,11.40
2022-08-17T10:49:53.670Z,10.70
2022-08-17T10:54:25.371Z,10.10
2022-08-17T10:58:55.265Z,11.63
2022-08-17T11:03:24.807Z,8.00
2022-08-17T11:08:22.228Z,9.33
2022-08-17T11:13:28.050Z,8.80
2022-08-17T11:18:33.042Z,10.60
2022-08-17T11:23:32.597Z,9.80
2022-08-17T11:28:19.274Z,7.93
2022-08-17T11:32:54.773Z,9.30
2022-08-17T11:37:47.502Z,10.30
2022-08-17T11:42:37.479Z,7.90
2022-08-17T11:47:36.500Z,8.80
2022-08-17T11:52:01.725Z,8.23
2022-08-17T11:56:48.926Z,9.40
2022-08-17T12:01:55.713Z,7.77
2022-08-17T12:06:30.472Z,6.70
2022-08-17T12:11:04.722Z,7.27
2022-08-17T12:15:36.213Z,6.77
2022-08-17T12:20:56.665Z,7.20
2022-08-17T12:25:37.549Z,6.63
2022-08-17T12:30:11.089Z,6.90
2022-08-17T12:34:42.322Z,6.73
2022-08-17T12:39:13.819Z,6.73
2022-08-17T12:43:40.204Z,5.70
2022-08-17T12:48:12.299Z,6.70
2022-08-17T12:52:41.208Z,5.07
2022-08-17T12:57:20.388Z,5.70
2022-08-17T13:01:46.872Z,6.00
2022-08-17T13:06:27.750Z,5.03
2022-08-17T13:11:05.808Z,5.30
2022-08-17T13:15:50.960Z,4.67
2022-08-17T13:20:16.272Z,5.33
2022-08-17T13:24:54.159Z,4.73
2022-08-17T13:29:31.379Z,5.43
2022-08-17T13:34:20.349Z,5.10
2022-08-17T13:38:49.522Z,4.93
2022-08-17T13:43:50.591Z,5.73
2022-08-17T13:48:15.833Z,4.80
2022-08-17T13:52:43.481Z,4.60
2022-08-17T13:57:12.428Z,4.57
2022-08-17T14:01:53.574Z,4.43
2022-08-17T14:06:49.798Z,4.80
2022-08-17T14:11:04.865Z,4.60
2022-08-17T14:15:54.853Z,5.10
2022-08-17T14:20:19.956Z,4.50
2022-08-17T14:24:45.947Z,4.30
2022-08-17T14:29:15.095Z,4.97
2022-08-17T14:33:40.914Z,4.57
2022-08-17T14:38:06.204Z,4.83
2022-08-17T14:42:34.068Z,4.80
2022-08-17T14:46:59.286Z,4.90
2022-08-17T14:51:24.545Z,5.47
2022-08-17T14:55:51.796Z,4.17
2022-08-17T15:00:17.461Z,5.23
2022-08-17T15:04:45.639Z,4.70
2022-08-17T15:09:11.167Z,5.07
2022-08-17T15:13:37.348Z,5.43
2022-08-17T15:18:18.582Z,5.17
2022-08-17T15:22:45.496Z,4.80
2022-08-17T15:27:11.436Z,5.87
2022-08-17T15:31:37.298Z,5.07
2022-08-17T15:36:06.516Z,5.20
2022-08-17T15:40:31.733Z,5.50
2022-08-17T15:45:11.359Z,5.00
2022-08-17T15:49:41.220Z,4.80
2022-08-17T15:54:22.291Z,5.27
2022-08-17T15:58:49.054Z,5.90
2022-08-17T16:03:58.269Z,5.30
2022-08-17T16:08:00.027Z,5.00
2022-08-17T16:12:25.805Z,4.80
2022-08-17T16:16:51.187Z,5.20
2022-08-17T16:21:25.919Z,5.30
2022-08-17T16:25:54.125Z,4.90
2022-08-17T16:30:24.501Z,6.00
2022-08-17T16:34:49.825Z,6.70
2022-08-17T16:39:15.400Z,6.70
2022-08-17T16:43:40.671Z,7.90
2022-08-17T16:48:07.861Z,7.60
2022-08-17T16:52:34.154Z,7.63
2022-08-17T16:56:59.398Z,8.77
2022-08-17T17:01:24.849Z,7.43
2022-08-17T17:06:33.505Z,9.37
2022-08-17T17:11:23.388Z,9.93
2022-08-17T17:16:41.110Z,9.03
2022-08-17T17:21:25.600Z,10.00
2022-08-17T17:26:12.840Z,7.80
2022-08-17T17:30:58.586Z,9.10
2022-08-17T17:35:34.777Z,7.93
2022-08-17T17:40:40.860Z,8.87
2022-08-17T17:45:18.687Z,9.27
2022-08-17T17:49:48.702Z,7.87
2022-08-17T17:54:43.884Z,7.70
2022-08-17T17:59:44.052Z,8.13
2022-08-17T18:04:41.310Z,7.63
2022-08-17T18:09:39.229Z,8.87
2022-08-17T18:14:40.395Z,7.63
2022-08-17T18:19:06.791Z,8.00
2022-08-17T18:23:33.336Z,8.03
2022-08-17T18:27:58.642Z,7.63
2022-08-17T18:32:34.227Z,7.20
2022-08-17T18:36:59.456Z,7.87
2022-08-17T18:41:30.453Z,7.60
2022-08-17T18:45:58.034Z,6.53
2022-08-17T18:50:39.616Z,7.43
2022-08-17T18:55:31.241Z,7.30
2022-08-17T18:59:56.568Z,6.97
2022-08-17T19:04:38.314Z,7.30
2022-08-17T19:09:03.672Z,6.70
2022-08-17T19:13:43.804Z,7.00
2022-08-17T19:18:19.223Z,6.20
2022-08-17T19:23:53.284Z,7.10
2022-08-17T19:28:29.959Z,6.77
2022-08-17T19:32:58.339Z,6.60
2022-08-17T19:37:44.298Z,7.63
2022-08-17T19:42:34.251Z,7.80
2022-08-17T19:48:04.987Z,7.20
2022-08-17T19:53:09.503Z,8.40
2022-08-17T19:57:39.351Z,9.93
2022-08-17T20:02:15.710Z,10.57
2022-08-17T20:06:46.682Z,10.30
2022-08-17T20:11:21.268Z,9.97
2022-08-17T20:15:47.210Z,11.37
2022-08-17T20:20:34.602Z,9.37
2022-08-17T20:25:29.923Z,9.47
2022-08-17T20:30:14.304Z,9.53
2022-08-17T20:34:39.800Z,8.37
2022-08-17T20:39:05.101Z,8.67
2022-08-17T20:43:33.026Z,8.80
2022-08-17T20:48:30.858Z,8.30
2022-08-17T20:52:56.266Z,7.33
2022-08-17T20:57:36.623Z,8.33
2022-08-17T21:02:17.679Z,7.10
2022-08-17T21:07:34.478Z,7.43
2022-08-17T21:12:09.403Z,6.93
2022-08-17T21:16:59.891Z,6.80
2022-08-17T21:22:01.139Z,6.23
2022-08-17T21:26:53.958Z,5.03
2022-08-17T21:32:03.584Z,5.07
2022-08-17T21:36:31.281Z,5.07
2022-08-17T21:40:56.640Z,4.13
2022-08-17T21:45:35.528Z,3.60
2022-08-17T21:50:23.880Z,4.53
2022-08-17T21:54:56.408Z,3.80
2022-08-17T21:59:36.926Z,4.40
2022-08-17T22:04:04.101Z,5.70
2022-08-17T22:08:29.353Z,4.70
2022-08-17T22:13:17.283Z,4.63
2022-08-17T22:17:46.602Z,5.77
2022-08-17T22:22:26.358Z,6.20
2022-08-17T22:27:20.202Z,6.23
2022-08-17T22:31:57.036Z,6.67
2022-08-17T22:36:33.029Z,5.00
2022-08-17T22:41:34.432Z,4.90
2022-08-17T22:46:00.328Z,5.37
2022-08-17T22:50:30.285Z,4.70
2022-08-17T22:55:41.049Z,4.57
2022-08-17T23:00:35.125Z,3.90
2022-08-17T23:05:16.711Z,3.20
2022-08-17T23:09:42.112Z,3.40
2022-08-17T23:14:08.431Z,3.20
2022-08-17T23:18:33.664Z,3.43
2022-08-17T23:22:59.985Z,3.87
2022-08-17T23:27:28.572Z,3.50
2022-08-17T23:31:54.652Z,3.23
2022-08-17T23:36:19.903Z,2.97
2022-08-17T23:40:45.329Z,3.40
2022-08-17T23:45:10.615Z,3.40
2022-08-17T23:49:36.350Z,3.50
2022-08-17T23:54:13.446Z,3.50
2022-08-17T23:58:44.722Z,3.07
